Rugeley, United Kingdom
Current Conditions -  °F | °C
As of 10:20 AM on Saturday 25 Oct 2014 (Local Time) from EGBB Reporting Station
Scattered Clouds Scattered Clouds  
Wind Chill: 50°   Ceiling: Unl
Heat Index: 50°   Visibility: 6mi
Dew Point: 48°   Wind: 9mph
Humidity: 94%   Direction: 180°S
Pressure: 30"   Gusts: NA
Location:  52.76°N, 1.93°W
Report Text: EGBB 250920Z 18008KT 9999 FEW008 SCT045 10/09 Q1016
Loading
Personal Weather Stations






























Interactive Weather Map New forecast layout! Learn more

10-Day Weather Forecast

Advertisements
Track Severe Weather on mobile